In Rescue
 
Open Full Screen Window  High Contrast Mode
Wind Gusting 00 knots
12
October 25, 2021 2:44 PM CDT
Weather Information
Wind Direction
  080 °
Wind Speed
  12 kt (14 mph)
Wind Gust
  00 kt (0 mph)
Altimeter
30.19 in
Visibility
10 SM
Temperature
07° C
45° F
Dewpoint
02° C
36° F
Humidity
71%
1hr Rain Fall
00.00 in.
24hr Rain Fall
00.02 in.
Sky Condition
Broken @ 3,500 ft
Scattered @ 2,800 ft
Scattered @ 2,200 ft
VFR

METAR KTWM 251944Z AUTO 08012KT 10SM SCT022 SCT028 BKN035 07/02 A3019 RMK AO2

FAA Disclaimer: The data displayed is for advisory purposes only and is not to be used for flight planning or operations.